Time;durP1;ratioP1;P1;durP2;ratioP2;P2;SDS_P1;SDS_P2;PMS_P1;PMS_P2;Temp;Humidity;BMP_temperature;BMP_pressure;BME280_temperature;BME280_humidity;BME280_pressure;Samples;Min_cycle;Max_cycle;Signal;HPM_P1;HPM_P2
2023/12/03 00:01:56;;;;;;;12.63;6.38;;;;;;;;;;5131021;27;20043;-72
2023/12/03 00:04:23;;;;;;;13.23;6.47;;;;;;;;;;5130624;27;20503;-72
2023/12/03 00:06:50;;;;;;;16.48;8.00;;;;;;;;;;5130682;27;20070;-72
2023/12/03 00:09:17;;;;;;;12.73;6.82;;;;;;;;;;5130420;27;20047;-72
2023/12/03 00:11:44;;;;;;;13.05;6.57;;;;;;;;;;5130330;27;20047;-72
2023/12/03 00:14:10;;;;;;;13.82;7.40;;;;;;;;;;5129338;27;20047;-72
2023/12/03 00:16:37;;;;;;;13.35;6.82;;;;;;;;;;5130519;27;20043;-72
2023/12/03 00:19:04;;;;;;;12.65;6.88;;;;;;;;;;5130527;27;20043;-72
2023/12/03 00:21:31;;;;;;;13.35;6.97;;;;;;;;;;5130169;27;20527;-72
2023/12/03 00:23:57;;;;;;;13.98;6.97;;;;;;;;;;5130018;27;20138;-73
2023/12/03 00:26:24;;;;;;;14.10;7.32;;;;;;;;;;5130301;27;20043;-72
2023/12/03 00:28:51;;;;;;;14.48;7.32;;;;;;;;;;5130468;27;20043;-72
2023/12/03 00:31:17;;;;;;;14.48;7.65;;;;;;;;;;5129995;27;20043;-73
2023/12/03 00:33:44;;;;;;;13.52;6.95;;;;;;;;;;5130387;27;20047;-72
2023/12/03 00:36:11;;;;;;;14.63;7.38;;;;;;;;;;5130254;27;20047;-72
2023/12/03 00:38:38;;;;;;;16.23;7.10;;;;;;;;;;5129873;27;20574;-72
2023/12/03 00:41:05;;;;;;;17.55;9.15;;;;;;;;;;5129892;27;20043;-72
2023/12/03 00:43:31;;;;;;;11.95;6.97;;;;;;;;;;5129676;27;20050;-72
2023/12/03 00:45:58;;;;;;;15.32;7.93;;;;;;;;;;5129446;27;20100;-72
2023/12/03 00:48:25;;;;;;;12.85;6.90;;;;;;;;;;5130261;27;20053;-72
2023/12/03 00:50:51;;;;;;;15.40;8.48;;;;;;;;;;5129988;27;20039;-72
2023/12/03 00:53:18;;;;;;;14.63;7.45;;;;;;;;;;5129814;27;20410;-72
2023/12/03 00:55:45;;;;;;;14.63;7.43;;;;;;;;;;5129228;27;20039;-72
2023/12/03 00:58:12;;;;;;;15.27;7.63;;;;;;;;;;5130039;27;20055;-72
2023/12/03 01:00:38;;;;;;;15.63;8.25;;;;;;;;;;5129768;27;20097;-72
2023/12/03 01:03:05;;;;;;;16.05;7.50;;;;;;;;;;5129693;27;20096;-72
2023/12/03 01:05:32;;;;;;;14.02;7.32;;;;;;;;;;5129730;27;20043;-72
2023/12/03 01:07:59;;;;;;;12.40;7.05;;;;;;;;;;5129638;27;20090;-72
2023/12/03 01:10:26;;;;;;;14.88;7.20;;;;;;;;;;5129475;27;20125;-72
2023/12/03 01:12:52;;;;;;;15.23;6.82;;;;;;;;;;5129544;27;20051;-71
2023/12/03 01:15:19;;;;;;;13.73;7.18;;;;;;;;;;5129605;27;20081;-72
2023/12/03 01:17:46;;;;;;;14.65;7.05;;;;;;;;;;5129257;27;20050;-72
2023/12/03 01:20:13;;;;;;;11.75;5.55;;;;;;;;;;5129749;27;20096;-71
2023/12/03 01:22:39;;;;;;;13.35;6.93;;;;;;;;;;5110520;27;20059;-72
2023/12/03 01:25:06;;;;;;;14.20;6.95;;;;;;;;;;5128800;27;20043;-72
2023/12/03 01:27:33;;;;;;;14.93;7.22;;;;;;;;;;5129305;27;20051;-72
2023/12/03 01:30:00;;;;;;;10.90;6.22;;;;;;;;;;5129302;28;20531;-72
2023/12/03 01:32:27;;;;;;;14.25;6.50;;;;;;;;;;5129608;28;20069;-72
2023/12/03 01:34:54;;;;;;;15.85;7.75;;;;;;;;;;5129218;28;20089;-72
2023/12/03 01:37:20;;;;;;;13.40;7.00;;;;;;;;;;5129060;28;20134;-72
2023/12/03 01:39:47;;;;;;;14.02;7.18;;;;;;;;;;5128900;28;20091;-72
2023/12/03 01:42:14;;;;;;;13.63;7.80;;;;;;;;;;5129267;28;20098;-72
2023/12/03 01:44:41;;;;;;;12.07;6.60;;;;;;;;;;5129376;28;20058;-72
2023/12/03 01:47:08;;;;;;;14.77;7.38;;;;;;;;;;5129363;28;20050;-72
2023/12/03 01:49:35;;;;;;;13.88;6.95;;;;;;;;;;5129569;28;20043;-72
2023/12/03 01:52:02;;;;;;;12.85;6.65;;;;;;;;;;5110622;28;20126;-72
2023/12/03 01:54:35;;;;;;;12.50;6.70;;;;;;;;;;5128759;28;20047;-72
2023/12/03 01:57:02;;;;;;;15.25;7.32;;;;;;;;;;5129175;28;20064;-72
2023/12/03 01:59:30;;;;;;;12.75;6.75;;;;;;;;;;5129277;28;20050;-72
2023/12/03 02:01:57;;;;;;;15.63;6.28;;;;;;;;;;5110909;28;20051;-72
2023/12/03 02:04:24;;;;;;;13.07;6.50;;;;;;;;;;5128790;28;20051;-73
2023/12/03 02:06:51;;;;;;;11.48;6.18;;;;;;;;;;5128983;28;20104;-72
2023/12/03 02:09:19;;;;;;;9.93;5.68;;;;;;;;;;5128996;28;20161;-71
2023/12/03 02:11:46;;;;;;;11.15;6.03;;;;;;;;;;5128716;28;20503;-71
2023/12/03 02:14:13;;;;;;;13.18;6.03;;;;;;;;;;5129138;28;20046;-71
2023/12/03 02:16:47;;;;;;;11.23;6.03;;;;;;;;;;5128787;28;20435;-71
2023/12/03 02:19:17;;;;;;;10.60;5.80;;;;;;;;;;5129037;28;20039;-72
2023/12/03 02:21:44;;;;;;;11.60;6.13;;;;;;;;;;5128499;28;20047;-71
2023/12/03 02:24:10;;;;;;;11.00;5.50;;;;;;;;;;5128131;28;20051;-72
2023/12/03 02:26:37;;;;;;;12.10;5.95;;;;;;;;;;5129012;27;20686;-72
2023/12/03 02:29:04;;;;;;;10.05;5.53;;;;;;;;;;5128906;28;20054;-72
2023/12/03 02:31:30;;;;;;;10.68;5.55;;;;;;;;;;5128872;28;20051;-71
2023/12/03 02:34:10;;;;;;;14.90;6.10;;;;;;;;;;5128692;28;20534;-71
2023/12/03 02:36:37;;;;;;;10.40;5.32;;;;;;;;;;5130455;27;20047;-71
2023/12/03 02:39:05;;;;;;;10.85;5.38;;;;;;;;;;5131912;27;20445;-72
2023/12/03 02:41:32;;;;;;;9.82;4.75;;;;;;;;;;5132501;27;20071;-71
2023/12/03 02:43:58;;;;;;;13.73;5.30;;;;;;;;;;5132344;27;20039;-71
2023/12/03 02:46:25;;;;;;;12.60;6.10;;;;;;;;;;5132266;27;20403;-71
2023/12/03 02:48:52;;;;;;;13.23;5.90;;;;;;;;;;5113746;27;20043;-71
2023/12/03 02:51:19;;;;;;;8.77;5.53;;;;;;;;;;5132317;27;20055;-71
2023/12/03 02:53:46;;;;;;;12.45;6.03;;;;;;;;;;5131806;27;20092;-71
2023/12/03 02:56:13;;;;;;;11.32;5.60;;;;;;;;;;5113906;27;20133;-71
2023/12/03 02:58:40;;;;;;;11.95;5.85;;;;;;;;;;5131848;27;20039;-71
2023/12/03 03:01:07;;;;;;;13.40;6.55;;;;;;;;;;5132184;27;20058;-71
2023/12/03 03:03:34;;;;;;;12.88;6.38;;;;;;;;;;5131848;27;20073;-71
2023/12/03 03:06:01;;;;;;;12.75;6.53;;;;;;;;;;5131962;27;20043;-71
2023/12/03 03:08:28;;;;;;;14.50;6.95;;;;;;;;;;5131275;27;20069;-72
2023/12/03 03:10:54;;;;;;;13.55;7.03;;;;;;;;;;5131764;27;20043;-71
2023/12/03 03:13:21;;;;;;;16.48;7.82;;;;;;;;;;5131787;27;20100;-72
2023/12/03 03:15:48;;;;;;;14.60;7.03;;;;;;;;;;5131414;27;20487;-71
2023/12/03 03:18:14;;;;;;;15.10;7.68;;;;;;;;;;5131584;27;20064;-71
2023/12/03 03:20:41;;;;;;;14.07;6.63;;;;;;;;;;5131557;27;20149;-71
2023/12/03 03:23:08;;;;;;;14.10;7.50;;;;;;;;;;5131462;27;20047;-72
2023/12/03 03:25:34;;;;;;;18.45;7.72;;;;;;;;;;5131341;27;20054;-71
2023/12/03 03:28:01;;;;;;;18.25;8.48;;;;;;;;;;5131246;27;20573;-71
2023/12/03 03:30:28;;;;;;;15.52;7.72;;;;;;;;;;5131266;27;20058;-72
2023/12/03 03:32:57;;;;;;;16.05;8.25;;;;;;;;;;5131168;27;20049;-71
2023/12/03 03:35:24;;;;;;;16.48;8.25;;;;;;;;;;5131206;27;20682;-71
2023/12/03 03:37:54;;;;;;;16.08;7.55;;;;;;;;;;5131495;27;20070;-71
2023/12/03 03:40:23;;;;;;;16.65;8.18;;;;;;;;;;5131116;27;20194;-71
2023/12/03 03:42:49;;;;;;;16.25;8.00;;;;;;;;;;5130971;27;20609;-71
2023/12/03 03:45:16;;;;;;;14.75;8.02;;;;;;;;;;5131303;27;20554;-72
2023/12/03 03:47:43;;;;;;;16.48;8.00;;;;;;;;;;5130707;27;20561;-71
2023/12/03 03:50:09;;;;;;;19.67;9.00;;;;;;;;;;5131152;27;20043;-71
2023/12/03 03:52:36;;;;;;;14.95;8.05;;;;;;;;;;5131257;27;20050;-71
2023/12/03 03:55:04;;;;;;;16.05;7.78;;;;;;;;;;5130460;27;20051;-71
2023/12/03 03:57:30;;;;;;;15.77;7.05;;;;;;;;;;5131218;27;20050;-71
2023/12/03 03:59:57;;;;;;;14.85;7.47;;;;;;;;;;5130988;27;20050;-72
2023/12/03 04:02:24;;;;;;;15.32;7.97;;;;;;;;;;5131018;27;20471;-71
2023/12/03 04:04:51;;;;;;;18.15;8.02;;;;;;;;;;5130214;27;20536;-72
2023/12/03 04:07:17;;;;;;;13.35;7.32;;;;;;;;;;5130468;27;20047;-71
2023/12/03 04:09:45;;;;;;;13.50;7.07;;;;;;;;;;5130133;27;20079;-72
2023/12/03 04:12:12;;;;;;;16.88;8.27;;;;;;;;;;5130314;27;20137;-71
2023/12/03 04:14:39;;;;;;;18.02;8.23;;;;;;;;;;5130734;27;20469;-71
2023/12/03 04:17:05;;;;;;;15.02;7.60;;;;;;;;;;5130677;27;20122;-71
2023/12/03 04:19:32;;;;;;;15.82;8.23;;;;;;;;;;5130655;27;20039;-72
2023/12/03 04:21:59;;;;;;;14.93;6.65;;;;;;;;;;5130202;27;20473;-72
2023/12/03 04:24:25;;;;;;;13.95;7.57;;;;;;;;;;5129589;27;20495;-72
2023/12/03 04:26:52;;;;;;;16.52;7.30;;;;;;;;;;5130076;27;20046;-71
2023/12/03 04:29:19;;;;;;;13.50;7.93;;;;;;;;;;5130203;27;20047;-72
2023/12/03 04:31:46;;;;;;;17.42;8.45;;;;;;;;;;5130525;27;20050;-72
2023/12/03 04:34:13;;;;;;;14.68;7.60;;;;;;;;;;5108847;27;20093;-72
2023/12/03 04:36:42;;;;;;;18.15;7.80;;;;;;;;;;5101374;27;20582;-71
2023/12/03 04:39:09;;;;;;;16.30;7.55;;;;;;;;;;5119914;27;20126;-72
2023/12/03 04:41:37;;;;;;;16.83;8.00;;;;;;;;;;5108857;28;20035;-72
2023/12/03 04:44:04;;;;;;;16.88;8.00;;;;;;;;;;5108570;28;20651;-71
2023/12/03 04:46:31;;;;;;;15.80;7.85;;;;;;;;;;5108700;28;20058;-72
2023/12/03 04:48:58;;;;;;;17.15;7.00;;;;;;;;;;5108848;28;20047;-72
2023/12/03 04:51:25;;;;;;;20.13;7.97;;;;;;;;;;5109038;28;20135;-72
2023/12/03 04:53:52;;;;;;;15.88;7.22;;;;;;;;;;5108122;28;20424;-71
2023/12/03 04:56:18;;;;;;;16.83;8.52;;;;;;;;;;5108980;28;20059;-72
2023/12/03 04:58:45;;;;;;;15.05;7.85;;;;;;;;;;5107902;28;20533;-71
2023/12/03 05:01:12;;;;;;;14.38;7.60;;;;;;;;;;5108837;28;20097;-72
2023/12/03 05:03:47;;;;;;;15.20;6.85;;;;;;;;;;5108788;28;20148;-72
2023/12/03 05:06:14;;;;;;;15.95;7.97;;;;;;;;;;5108583;28;20042;-72
2023/12/03 05:08:41;;;;;;;15.60;7.63;;;;;;;;;;5108179;28;20043;-71
2023/12/03 05:11:08;;;;;;;20.80;9.68;;;;;;;;;;5108480;28;20050;-71
2023/12/03 05:13:35;;;;;;;25.13;10.00;;;;;;;;;;5108484;28;20040;-71
2023/12/03 05:16:04;;;;;;;21.45;10.00;;;;;;;;;;5108107;28;20525;-71
2023/12/03 05:18:31;;;;;;;19.55;9.73;;;;;;;;;;5108473;28;20055;-71
2023/12/03 05:20:58;;;;;;;19.40;9.25;;;;;;;;;;5108060;28;20055;-71
2023/12/03 05:23:25;;;;;;;19.55;9.25;;;;;;;;;;5090718;28;20050;-71
2023/12/03 05:25:52;;;;;;;19.08;8.70;;;;;;;;;;5108569;28;20530;-71
2023/12/03 05:28:19;;;;;;;16.42;8.23;;;;;;;;;;5108970;28;20062;-71
2023/12/03 05:30:46;;;;;;;17.85;9.27;;;;;;;;;;5108498;28;20947;-71
2023/12/03 05:33:13;;;;;;;13.75;7.07;;;;;;;;;;5108888;28;20054;-71
2023/12/03 05:35:40;;;;;;;20.52;8.07;;;;;;;;;;5108711;28;20053;-71
2023/12/03 05:38:08;;;;;;;17.25;8.10;;;;;;;;;;5108879;28;20047;-71
2023/12/03 05:40:34;;;;;;;18.30;8.02;;;;;;;;;;5108160;28;20050;-71
2023/12/03 05:43:02;;;;;;;16.90;7.45;;;;;;;;;;5109012;28;20052;-71
2023/12/03 05:45:29;;;;;;;18.35;8.30;;;;;;;;;;5108390;28;20499;-71
2023/12/03 05:47:56;;;;;;;17.58;7.90;;;;;;;;;;5108413;28;20044;-71
2023/12/03 05:50:22;;;;;;;14.90;7.65;;;;;;;;;;5090614;28;20050;-71
2023/12/03 05:52:49;;;;;;;17.08;8.48;;;;;;;;;;5108390;28;20055;-71
2023/12/03 05:55:16;;;;;;;14.80;7.25;;;;;;;;;;5089921;28;20523;-71
2023/12/03 05:57:43;;;;;;;13.52;7.47;;;;;;;;;;5108858;28;20105;-71
2023/12/03 06:00:10;;;;;;;15.90;7.72;;;;;;;;;;5090344;28;20487;-71
2023/12/03 06:02:37;;;;;;;17.02;8.32;;;;;;;;;;5108574;28;20503;-71
2023/12/03 06:05:07;;;;;;;16.38;7.85;;;;;;;;;;5108335;28;20385;-72
2023/12/03 06:07:37;;;;;;;16.37;7.13;;;;;;;;;;5108489;28;20167;-71
2023/12/03 06:10:07;;;;;;;15.68;7.65;;;;;;;;;;5108232;28;20042;-71
2023/12/03 06:12:36;;;;;;;14.20;7.82;;;;;;;;;;5111373;28;20549;-72
2023/12/03 06:15:04;;;;;;;14.30;7.30;;;;;;;;;;5112511;28;20043;-71
2023/12/03 06:17:30;;;;;;;15.63;6.97;;;;;;;;;;5112084;28;20518;-72
2023/12/03 06:19:57;;;;;;;17.02;7.60;;;;;;;;;;5112514;28;20069;-72
2023/12/03 06:22:24;;;;;;;14.63;8.10;;;;;;;;;;5112198;28;20047;-72
2023/12/03 06:24:51;;;;;;;14.40;7.32;;;;;;;;;;5111517;28;20052;-72
2023/12/03 06:27:18;;;;;;;14.80;6.43;;;;;;;;;;5112036;28;20047;-71
2023/12/03 06:29:44;;;;;;;12.57;6.35;;;;;;;;;;5111742;28;20135;-72
2023/12/03 06:32:12;;;;;;;14.98;7.22;;;;;;;;;;5112336;28;20048;-72
2023/12/03 06:34:38;;;;;;;18.60;7.63;;;;;;;;;;5112203;28;20048;-72
2023/12/03 06:37:06;;;;;;;15.10;7.28;;;;;;;;;;5112109;28;20047;-72
2023/12/03 06:39:33;;;;;;;13.75;6.72;;;;;;;;;;5111788;28;20051;-71
2023/12/03 06:41:59;;;;;;;15.90;7.72;;;;;;;;;;5111949;28;20056;-72
2023/12/03 06:44:26;;;;;;;15.93;8.32;;;;;;;;;;5111572;28;20066;-71
2023/12/03 06:47:07;;;;;;;16.05;7.65;;;;;;;;;;5111510;28;20075;-72
2023/12/03 06:49:33;;;;;;;15.23;7.10;;;;;;;;;;5111847;28;20066;-72
2023/12/03 06:52:00;;;;;;;17.35;7.70;;;;;;;;;;5111632;28;20375;-72
2023/12/03 06:54:27;;;;;;;14.00;7.32;;;;;;;;;;5111379;28;20051;-72
2023/12/03 06:56:53;;;;;;;17.00;7.88;;;;;;;;;;5111126;28;20476;-71
2023/12/03 06:59:21;;;;;;;17.63;8.32;;;;;;;;;;5111440;28;20044;-72
2023/12/03 07:01:48;;;;;;;14.88;7.32;;;;;;;;;;5092991;28;20134;-72
2023/12/03 07:04:14;;;;;;;16.30;8.32;;;;;;;;;;5111351;28;20075;-72
2023/12/03 07:06:41;;;;;;;21.67;8.88;;;;;;;;;;5110938;28;20423;-72
2023/12/03 07:09:11;;;;;;;15.27;7.43;;;;;;;;;;5110913;28;20067;-72
2023/12/03 07:11:58;;;;;;;17.43;8.10;;;;;;;;;;5111225;28;20083;-72
2023/12/03 07:14:25;;;;;;;18.38;8.65;;;;;;;;;;5111472;28;20057;-73
2023/12/03 07:16:51;;;;;;;16.42;7.65;;;;;;;;;;5110703;28;20488;-72
2023/12/03 07:19:18;;;;;;;16.45;8.23;;;;;;;;;;5111110;28;20043;-72
2023/12/03 07:21:45;;;;;;;17.58;8.15;;;;;;;;;;5091835;28;20083;-72
2023/12/03 07:24:12;;;;;;;14.95;8.10;;;;;;;;;;5110797;28;20071;-72
2023/12/03 07:26:43;;;;;;;13.75;7.38;;;;;;;;;;5110845;28;20055;-72
2023/12/03 07:29:10;;;;;;;14.57;7.80;;;;;;;;;;5111112;28;20137;-72
2023/12/03 07:31:37;;;;;;;14.55;7.18;;;;;;;;;;5110780;28;20062;-72
2023/12/03 07:34:03;;;;;;;16.17;8.30;;;;;;;;;;5092598;28;20052;-72
2023/12/03 07:36:31;;;;;;;13.68;7.47;;;;;;;;;;5092681;28;20070;-72
2023/12/03 07:38:58;;;;;;;15.60;7.05;;;;;;;;;;5110125;28;20048;-72
2023/12/03 07:41:24;;;;;;;17.30;7.57;;;;;;;;;;5110586;28;20053;-72
2023/12/03 07:43:51;;;;;;;13.23;7.28;;;;;;;;;;5110717;28;20050;-72
2023/12/03 07:46:18;;;;;;;17.35;7.63;;;;;;;;;;5110327;28;20051;-72
2023/12/03 07:48:46;;;;;;;13.68;7.13;;;;;;;;;;5110511;28;20158;-72
2023/12/03 07:51:12;;;;;;;17.60;7.80;;;;;;;;;;5092471;28;20047;-72
2023/12/03 07:53:40;;;;;;;13.38;6.35;;;;;;;;;;5110331;28;20047;-73
2023/12/03 07:56:08;;;;;;;16.70;7.72;;;;;;;;;;5110085;28;20538;-72
2023/12/03 07:58:35;;;;;;;19.58;7.32;;;;;;;;;;5110015;28;20051;-72
2023/12/03 08:01:05;;;;;;;17.00;7.53;;;;;;;;;;5110133;28;20498;-73
2023/12/03 08:03:32;;;;;;;15.90;7.30;;;;;;;;;;5110355;28;20047;-72
2023/12/03 08:05:58;;;;;;;15.25;7.40;;;;;;;;;;5110184;28;20058;-73
2023/12/03 08:08:25;;;;;;;13.70;7.63;;;;;;;;;;5109926;28;20050;-73
2023/12/03 08:10:52;;;;;;;12.50;7.35;;;;;;;;;;5110143;28;20131;-72
2023/12/03 08:13:19;;;;;;;16.65;7.97;;;;;;;;;;5109901;28;20050;-73
2023/12/03 08:15:46;;;;;;;16.17;7.38;;;;;;;;;;5109754;28;20423;-72
2023/12/03 08:18:12;;;;;;;14.77;7.53;;;;;;;;;;5109682;28;20491;-72
2023/12/03 08:20:39;;;;;;;15.38;7.78;;;;;;;;;;5110225;28;20044;-73
2023/12/03 08:23:06;;;;;;;17.77;7.40;;;;;;;;;;5110004;28;20039;-72
2023/12/03 08:25:33;;;;;;;17.60;8.38;;;;;;;;;;5109616;28;20054;-72
2023/12/03 08:27:59;;;;;;;14.90;7.45;;;;;;;;;;5109246;28;20050;-72
2023/12/03 08:30:26;;;;;;;13.00;7.03;;;;;;;;;;5109850;28;20051;-72
2023/12/03 08:32:53;;;;;;;15.60;8.15;;;;;;;;;;5109556;28;20054;-72
2023/12/03 08:35:19;;;;;;;14.45;7.10;;;;;;;;;;5109003;28;20075;-73
2023/12/03 08:37:48;;;;;;;19.10;8.45;;;;;;;;;;5109054;28;20051;-72
2023/12/03 08:40:15;;;;;;;14.90;7.38;;;;;;;;;;5109472;28;20047;-72
2023/12/03 08:42:44;;;;;;;13.68;7.18;;;;;;;;;;5109633;28;20047;-73
2023/12/03 08:45:11;;;;;;;15.13;7.65;;;;;;;;;;5109408;28;20067;-73
2023/12/03 08:47:37;;;;;;;13.90;7.80;;;;;;;;;;5109047;28;20047;-73
2023/12/03 08:50:05;;;;;;;9.80;5.15;;;;;;;;;;5109333;28;20536;-73
2023/12/03 08:52:32;;;;;;;10.85;6.22;;;;;;;;;;5109278;28;20050;-73
2023/12/03 08:55:00;;;;;;;12.35;6.82;;;;;;;;;;5109388;28;20048;-72
2023/12/03 08:57:26;;;;;;;13.32;6.90;;;;;;;;;;5109123;28;20075;-73
2023/12/03 08:59:54;;;;;;;8.35;5.05;;;;;;;;;;5109520;28;20047;-73
2023/12/03 09:02:21;;;;;;;12.25;6.55;;;;;;;;;;5091138;28;20050;-72
2023/12/03 09:04:48;;;;;;;12.93;6.20;;;;;;;;;;5109109;28;20048;-73
2023/12/03 09:07:17;;;;;;;12.07;6.72;;;;;;;;;;5108771;28;20134;-73
2023/12/03 09:09:47;;;;;;;11.30;5.93;;;;;;;;;;5108627;28;20051;-73
2023/12/03 09:12:17;;;;;;;12.83;6.20;;;;;;;;;;5108791;28;20439;-73
2023/12/03 09:14:47;;;;;;;9.38;5.60;;;;;;;;;;5109374;28;20285;-72
2023/12/03 09:17:13;;;;;;;9.45;5.85;;;;;;;;;;5109214;28;20047;-73
2023/12/03 09:19:42;;;;;;;9.38;5.57;;;;;;;;;;5109213;28;20066;-72
2023/12/03 09:22:09;;;;;;;11.50;6.50;;;;;;;;;;5108593;28;20079;-73
2023/12/03 09:24:36;;;;;;;12.02;6.32;;;;;;;;;;5108657;28;20513;-72
2023/12/03 09:27:02;;;;;;;10.38;5.85;;;;;;;;;;5108788;28;20048;-72
2023/12/03 09:29:29;;;;;;;10.23;5.95;;;;;;;;;;5108629;28;20039;-73
2023/12/03 09:31:56;;;;;;;11.50;6.50;;;;;;;;;;5108784;28;20054;-73
2023/12/03 09:34:22;;;;;;;10.43;5.78;;;;;;;;;;5109184;28;20058;-73
2023/12/03 09:36:49;;;;;;;13.75;7.15;;;;;;;;;;5108525;28;20534;-72
2023/12/03 09:39:16;;;;;;;11.85;6.88;;;;;;;;;;5108430;28;20104;-73
2023/12/03 09:41:53;;;;;;;13.93;7.32;;;;;;;;;;5108405;28;20051;-72
2023/12/03 09:44:33;;;;;;;13.80;7.13;;;;;;;;;;5108522;28;20054;-73
2023/12/03 09:46:59;;;;;;;18.92;7.35;;;;;;;;;;5112834;28;20054;-73
2023/12/03 09:49:28;;;;;;;12.13;6.97;;;;;;;;;;5112663;28;20048;-73
2023/12/03 09:52:02;;;;;;;13.52;7.65;;;;;;;;;;5112613;28;20389;-73
2023/12/03 09:54:31;;;;;;;12.55;7.07;;;;;;;;;;5112564;28;20086;-73
2023/12/03 09:56:59;;;;;;;12.32;6.85;;;;;;;;;;5112529;28;20078;-73
2023/12/03 09:59:28;;;;;;;11.27;6.43;;;;;;;;;;5112688;28;20051;-73
2023/12/03 10:01:56;;;;;;;11.90;7.00;;;;;;;;;;5112323;28;20044;-73
2023/12/03 10:04:23;;;;;;;12.27;7.10;;;;;;;;;;5112479;28;20043;-73
2023/12/03 10:06:53;;;;;;;13.75;7.15;;;;;;;;;;5112811;28;20051;-73
2023/12/03 10:09:20;;;;;;;15.07;7.10;;;;;;;;;;5111868;28;20488;-73
2023/12/03 10:11:56;;;;;;;10.05;5.72;;;;;;;;;;5112420;28;20285;-72
2023/12/03 10:14:24;;;;;;;10.95;6.32;;;;;;;;;;5112516;28;20127;-73
2023/12/03 10:16:51;;;;;;;10.38;6.00;;;;;;;;;;5112008;28;20407;-73
2023/12/03 10:19:28;;;;;;;10.48;5.60;;;;;;;;;;5111940;28;20048;-73
2023/12/03 10:21:58;;;;;;;10.13;5.47;;;;;;;;;;5112264;28;20119;-72
2023/12/03 10:24:24;;;;;;;11.30;6.00;;;;;;;;;;5112048;28;20054;-72
2023/12/03 10:26:54;;;;;;;11.38;5.90;;;;;;;;;;5112317;28;20079;-73
2023/12/03 10:29:23;;;;;;;8.68;4.68;;;;;;;;;;5112117;28;20056;-73
2023/12/03 10:31:50;;;;;;;8.20;4.30;;;;;;;;;;5112054;28;20047;-72
2023/12/03 10:34:19;;;;;;;7.97;4.75;;;;;;;;;;5111741;28;20491;-73
2023/12/03 10:36:47;;;;;;;8.80;4.00;;;;;;;;;;5112102;28;20082;-72
2023/12/03 10:39:17;;;;;;;7.82;4.00;;;;;;;;;;5111052;28;20047;-73
2023/12/03 10:41:49;;;;;;;6.38;3.65;;;;;;;;;;5111264;28;20498;-73
2023/12/03 10:44:21;;;;;;;6.88;3.58;;;;;;;;;;5120731;27;20040;-72
2023/12/03 10:46:48;;;;;;;7.32;3.97;;;;;;;;;;5120799;27;20093;-73
2023/12/03 10:49:15;;;;;;;6.60;3.47;;;;;;;;;;5104013;27;20518;-73
2023/12/03 10:51:43;;;;;;;6.82;3.53;;;;;;;;;;5121011;27;20491;-73
2023/12/03 10:54:12;;;;;;;7.03;4.15;;;;;;;;;;5119660;27;20043;-73
2023/12/03 10:56:43;;;;;;;5.93;3.53;;;;;;;;;;5119866;27;20061;-74
2023/12/03 10:59:12;;;;;;;5.50;3.33;;;;;;;;;;5120367;27;20047;-73
2023/12/03 11:01:43;;;;;;;7.25;3.55;;;;;;;;;;5120628;27;20042;-73
2023/12/03 11:04:38;;;;;;;6.90;3.72;;;;;;;;;;5120221;27;20055;-74
2023/12/03 11:07:07;;;;;;;8.13;3.65;;;;;;;;;;5121370;27;20063;-73
2023/12/03 11:09:39;;;;;;;5.70;3.33;;;;;;;;;;5119405;27;20039;-74
2023/12/03 11:12:15;;;;;;;4.93;2.50;;;;;;;;;;5111446;27;20040;-72
2023/12/03 11:14:43;;;;;;;3.60;1.90;;;;;;;;;;5111260;28;20044;-73
2023/12/03 11:17:28;;;;;;;3.67;2.20;;;;;;;;;;5093224;28;20050;-72
2023/12/03 11:20:01;;;;;;;3.95;1.98;;;;;;;;;;5110717;28;20044;-74
2023/12/03 11:22:31;;;;;;;3.67;1.80;;;;;;;;;;5110988;28;20621;-73
2023/12/03 11:25:06;;;;;;;4.78;1.90;;;;;;;;;;5110328;28;20055;-73
2023/12/03 11:27:33;;;;;;;4.10;2.10;;;;;;;;;;5118001;27;20048;-73
2023/12/03 11:30:04;;;;;;;4.45;1.60;;;;;;;;;;5119519;27;20039;-74
2023/12/03 11:32:30;;;;;;;3.60;2.00;;;;;;;;;;5102738;27;20039;-74
2023/12/03 11:35:12;;;;;;;3.10;1.55;;;;;;;;;;5119603;27;20130;-73
2023/12/03 11:37:43;;;;;;;2.60;1.50;;;;;;;;;;5119613;27;20521;-74
2023/12/03 11:40:13;;;;;;;3.45;1.58;;;;;;;;;;5119510;27;20522;-73
2023/12/03 11:42:48;;;;;;;3.22;1.40;;;;;;;;;;5119628;27;20066;-74
2023/12/03 11:45:29;;;;;;;3.38;1.67;;;;;;;;;;5120293;27;20546;-72
2023/12/03 11:48:10;;;;;;;3.13;1.77;;;;;;;;;;5121070;27;20075;-72
2023/12/03 11:50:42;;;;;;;3.58;1.70;;;;;;;;;;5118377;27;20050;-73
2023/12/03 11:53:15;;;;;;;2.05;1.27;;;;;;;;;;5102845;27;20519;-72
2023/12/03 11:55:47;;;;;;;2.15;1.30;;;;;;;;;;5121350;27;20066;-72
2023/12/03 11:58:14;;;;;;;2.90;1.42;;;;;;;;;;5131084;27;20043;-71
2023/12/03 12:00:41;;;;;;;2.88;1.70;;;;;;;;;;5130805;27;20050;-71
2023/12/03 12:03:08;;;;;;;3.65;1.60;;;;;;;;;;5130738;27;20142;-71
2023/12/03 12:05:45;;;;;;;2.55;1.33;;;;;;;;;;5130397;27;20502;-71
2023/12/03 12:08:21;;;;;;;1.92;1.20;;;;;;;;;;5130488;27;20043;-71
2023/12/03 12:10:49;;;;;;;2.25;1.15;;;;;;;;;;5112364;27;20044;-72
2023/12/03 12:13:19;;;;;;;1.25;0.95;;;;;;;;;;5130788;27;20152;-71
2023/12/03 12:15:46;;;;;;;1.92;1.08;;;;;;;;;;5130252;27;20692;-70
2023/12/03 12:18:13;;;;;;;1.85;0.90;;;;;;;;;;5130662;27;20050;-70
2023/12/03 12:20:40;;;;;;;1.27;0.88;;;;;;;;;;5130265;27;20163;-70
2023/12/03 12:23:06;;;;;;;1.45;0.70;;;;;;;;;;5089371;28;20047;-71
2023/12/03 12:25:33;;;;;;;1.55;0.80;;;;;;;;;;5088870;28;20048;-70
2023/12/03 12:28:00;;;;;;;1.13;0.70;;;;;;;;;;5089708;28;20048;-70
2023/12/03 12:30:30;;;;;;;2.03;0.80;;;;;;;;;;5089355;28;20044;-71
2023/12/03 12:33:04;;;;;;;1.15;0.80;;;;;;;;;;5089448;28;20056;-71
2023/12/03 12:35:32;;;;;;;2.90;1.00;;;;;;;;;;5089271;28;20055;-71
2023/12/03 12:38:04;;;;;;;2.15;0.80;;;;;;;;;;5089500;28;20050;-71
2023/12/03 12:40:37;;;;;;;1.73;0.80;;;;;;;;;;5087372;28;20048;-71
2023/12/03 12:43:08;;;;;;;1.35;0.70;;;;;;;;;;5089260;28;20044;-71
2023/12/03 12:45:35;;;;;;;1.02;0.70;;;;;;;;;;5088794;28;20044;-73
2023/12/03 12:48:02;;;;;;;1.17;0.77;;;;;;;;;;5088198;28;20078;-72
2023/12/03 12:50:36;;;;;;;1.50;0.80;;;;;;;;;;5088786;28;20047;-71
2023/12/03 12:53:05;;;;;;;2.80;0.82;;;;;;;;;;5089179;28;20060;-71
2023/12/03 12:55:33;;;;;;;1.23;0.80;;;;;;;;;;5088254;28;20047;-72
2023/12/03 12:58:02;;;;;;;1.88;0.77;;;;;;;;;;5087492;28;20048;-72
2023/12/03 13:00:30;;;;;;;0.85;0.60;;;;;;;;;;5087187;28;20048;-72
2023/12/03 13:02:58;;;;;;;1.77;0.70;;;;;;;;;;5089054;28;20055;-72
2023/12/03 13:05:25;;;;;;;0.90;0.60;;;;;;;;;;5088492;28;20492;-72
2023/12/03 13:07:53;;;;;;;1.58;0.77;;;;;;;;;;5088629;28;20055;-73
2023/12/03 13:10:21;;;;;;;1.23;0.73;;;;;;;;;;5088210;28;20047;-72
2023/12/03 13:12:49;;;;;;;1.83;0.80;;;;;;;;;;5088623;28;20048;-72
2023/12/03 13:15:18;;;;;;;1.92;1.00;;;;;;;;;;5088393;28;20077;-72
2023/12/03 13:17:55;;;;;;;1.65;1.00;;;;;;;;;;5088389;28;20093;-71
2023/12/03 13:20:22;;;;;;;1.85;1.10;;;;;;;;;;5087948;28;20362;-72
2023/12/03 13:22:49;;;;;;;4.03;1.30;;;;;;;;;;5124591;27;20433;-72
2023/12/03 13:25:17;;;;;;;2.92;1.20;;;;;;;;;;5128771;27;20040;-71
2023/12/03 13:27:44;;;;;;;3.47;1.15;;;;;;;;;;5129416;27;20047;-71
2023/12/03 13:30:11;;;;;;;2.70;1.35;;;;;;;;;;5110411;27;20043;-71
2023/12/03 13:32:42;;;;;;;2.10;1.13;;;;;;;;;;5129053;27;20419;-72
2023/12/03 13:35:14;;;;;;;2.40;1.40;;;;;;;;;;5129138;28;20198;-72
2023/12/03 13:37:41;;;;;;;5.20;1.40;;;;;;;;;;5129182;28;20679;-72
2023/12/03 13:40:08;;;;;;;3.08;1.20;;;;;;;;;;5128621;27;20462;-72
2023/12/03 13:42:35;;;;;;;3.55;1.42;;;;;;;;;;5129038;28;20039;-72
2023/12/03 13:45:03;;;;;;;2.38;1.20;;;;;;;;;;5128740;28;20098;-72
2023/12/03 13:47:31;;;;;;;1.50;1.00;;;;;;;;;;5110755;28;20047;-72
2023/12/03 13:50:00;;;;;;;3.10;1.20;;;;;;;;;;5128419;28;20047;-71
2023/12/03 13:52:27;;;;;;;3.10;1.27;;;;;;;;;;5129220;28;20047;-72
2023/12/03 13:54:56;;;;;;;1.52;1.00;;;;;;;;;;5128345;28;20453;-72
2023/12/03 13:57:23;;;;;;;2.55;1.20;;;;;;;;;;5128865;28;20077;-72
2023/12/03 13:59:50;;;;;;;1.95;0.90;;;;;;;;;;5128717;27;20074;-72
2023/12/03 14:02:17;;;;;;;2.40;1.08;;;;;;;;;;5129409;28;20055;-72
2023/12/03 14:05:01;;;;;;;1.88;1.00;;;;;;;;;;5128538;28;20058;-72
2023/12/03 14:07:46;;;;;;;1.33;0.80;;;;;;;;;;5128672;28;20506;-72
2023/12/03 14:10:13;;;;;;;1.52;0.90;;;;;;;;;;5128360;28;20115;-72
2023/12/03 14:12:40;;;;;;;1.95;0.98;;;;;;;;;;5122573;28;20550;-72
2023/12/03 14:15:08;;;;;;;1.80;0.90;;;;;;;;;;5119128;28;20133;-72
2023/12/03 14:17:35;;;;;;;1.95;0.90;;;;;;;;;;5118169;28;20069;-73
2023/12/03 14:20:04;;;;;;;2.05;1.00;;;;;;;;;;5116885;28;20055;-73
2023/12/03 14:22:32;;;;;;;2.30;0.90;;;;;;;;;;5099547;28;20055;-73
2023/12/03 14:24:59;;;;;;;3.75;1.00;;;;;;;;;;5116981;28;20043;-73
2023/12/03 14:27:26;;;;;;;1.77;1.00;;;;;;;;;;5118698;28;20049;-73
2023/12/03 14:29:52;;;;;;;2.00;1.10;;;;;;;;;;5117706;28;20044;-71
2023/12/03 14:32:20;;;;;;;2.25;1.17;;;;;;;;;;5118260;27;20429;-71
2023/12/03 14:34:46;;;;;;;1.92;1.05;;;;;;;;;;5122832;27;20043;-71
2023/12/03 14:37:13;;;;;;;2.63;1.48;;;;;;;;;;5121551;27;20035;-71
2023/12/03 14:39:40;;;;;;;2.00;1.15;;;;;;;;;;5120406;27;20042;-71